createdAt,value
2022-11-13T00:00:51.380Z,95.70
2022-11-13T00:03:37.706Z,95.40
2022-11-13T00:06:43.767Z,94.20
2022-11-13T00:09:29.598Z,94.50
2022-11-13T00:12:16.511Z,94.40
2022-11-13T00:15:02.997Z,92.90
2022-11-13T00:17:53.662Z,93.40
2022-11-13T00:20:39.552Z,93.90
2022-11-13T00:23:25.499Z,93.90
2022-11-13T00:26:17.680Z,93.90
2022-11-13T00:29:04.125Z,94.10
2022-11-13T00:31:50.074Z,94.00
2022-11-13T00:34:47.556Z,94.20
2022-11-13T00:37:27.083Z,94.10
2022-11-13T00:40:13.597Z,94.10
2022-11-13T00:43:01.409Z,93.50
2022-11-13T00:45:47.262Z,93.00
2022-11-13T00:48:33.915Z,93.30
2022-11-13T00:51:19.956Z,93.40
2022-11-13T00:54:06.223Z,93.50
2022-11-13T00:56:52.657Z,93.60
2022-11-13T00:59:39.102Z,93.80
2022-11-13T01:02:26.297Z,93.70
2022-11-13T01:05:12.123Z,93.90
2022-11-13T01:07:58.379Z,93.60
2022-11-13T01:10:53.162Z,93.80
2022-11-13T01:13:36.336Z,94.30
2022-11-13T01:16:25.961Z,94.50
2022-11-13T01:19:14.438Z,94.30
2022-11-13T01:22:01.498Z,94.20
2022-11-13T01:24:47.498Z,94.50
2022-11-13T01:27:38.932Z,94.20
2022-11-13T01:30:25.187Z,94.50
2022-11-13T01:33:10.824Z,95.00
2022-11-13T01:36:05.984Z,95.10
2022-11-13T01:38:52.593Z,95.00
2022-11-13T01:41:39.392Z,95.00
2022-11-13T01:44:26.205Z,95.20
2022-11-13T01:47:12.217Z,95.00
2022-11-13T01:50:02.194Z,95.30
2022-11-13T01:52:48.518Z,95.30
2022-11-13T01:55:35.072Z,95.00
2022-11-13T01:58:22.043Z,95.00
2022-11-13T02:01:09.728Z,95.00
2022-11-13T02:03:56.269Z,95.10
2022-11-13T02:07:04.283Z,95.30
2022-11-13T02:09:52.797Z,95.10
2022-11-13T02:12:42.323Z,95.00
2022-11-13T02:15:50.225Z,94.90
2022-11-13T02:18:37.883Z,94.90
2022-11-13T02:21:45.937Z,94.80
2022-11-13T02:24:37.828Z,95.00
2022-11-13T02:27:48.048Z,94.10
2022-11-13T02:30:36.127Z,94.00
2022-11-13T02:33:30.420Z,93.90
2022-11-13T02:36:19.003Z,93.50
2022-11-13T02:39:10.006Z,93.70
2022-11-13T02:41:56.701Z,94.20
2022-11-13T02:44:43.520Z,94.20
2022-11-13T02:47:29.611Z,93.50
2022-11-13T02:50:17.306Z,93.30
2022-11-13T02:53:04.524Z,93.00
2022-11-13T02:55:51.161Z,92.90
2022-11-13T02:58:39.360Z,93.20
2022-11-13T03:01:25.351Z,92.60
2022-11-13T03:04:11.192Z,92.90
2022-11-13T03:06:57.871Z,92.80
2022-11-13T03:09:43.987Z,92.60
2022-11-13T03:12:30.565Z,92.50
2022-11-13T03:15:16.657Z,92.70
2022-11-13T03:18:05.055Z,92.70
2022-11-13T03:20:53.537Z,92.80
2022-11-13T03:23:41.817Z,93.00
2022-11-13T03:26:31.307Z,93.10
2022-11-13T03:29:17.914Z,93.30
2022-11-13T03:32:04.960Z,92.80
2022-11-13T03:34:51.329Z,93.20
2022-11-13T03:37:37.832Z,93.50
2022-11-13T03:40:24.341Z,93.80
2022-11-13T03:46:06.961Z,94.60
2022-11-13T03:48:53.778Z,93.30
2022-11-13T03:51:39.687Z,93.60
2022-11-13T03:54:26.078Z,93.80
2022-11-13T03:57:12.128Z,93.90
2022-11-13T03:59:58.294Z,94.10
2022-11-13T04:02:44.853Z,94.10
2022-11-13T04:05:31.265Z,94.00
2022-11-13T04:08:18.590Z,93.80
2022-11-13T04:11:10.364Z,93.40
2022-11-13T04:13:56.781Z,93.50
2022-11-13T04:16:43.025Z,94.00
2022-11-13T04:19:29.599Z,94.40
2022-11-13T04:22:16.127Z,94.60
2022-11-13T04:25:02.627Z,95.10
2022-11-13T04:27:53.485Z,95.50
2022-11-13T04:30:39.265Z,95.50
2022-11-13T04:33:25.325Z,95.00
2022-11-13T04:36:11.425Z,95.30
2022-11-13T04:38:57.787Z,95.60
2022-11-13T04:42:02.131Z,95.30
2022-11-13T04:44:48.263Z,95.40
2022-11-13T04:47:34.627Z,95.40
2022-11-13T04:50:21.859Z,95.60
2022-11-13T04:53:08.146Z,96.10
2022-11-13T04:55:54.791Z,96.20
2022-11-13T04:58:40.529Z,96.30
2022-11-13T05:01:27.266Z,96.50
2022-11-13T05:04:16.025Z,96.30
2022-11-13T05:07:02.489Z,95.80
2022-11-13T05:09:50.000Z,96.20
2022-11-13T05:12:36.696Z,96.60
2022-11-13T05:15:23.008Z,96.50
2022-11-13T05:18:09.956Z,96.60
2022-11-13T05:20:56.161Z,96.80
2022-11-13T05:23:42.769Z,96.90
2022-11-13T05:26:29.469Z,97.10
2022-11-13T05:29:15.563Z,96.90
2022-11-13T05:32:01.376Z,97.10
2022-11-13T05:34:47.683Z,96.90
2022-11-13T05:37:34.150Z,96.70
2022-11-13T05:40:20.798Z,97.70
2022-11-13T05:43:07.514Z,97.20
2022-11-13T05:46:04.400Z,97.20
2022-11-13T05:48:56.811Z,97.00
2022-11-13T05:51:46.130Z,97.00
2022-11-13T05:54:33.611Z,97.00
2022-11-13T05:57:20.320Z,97.00
2022-11-13T06:00:11.083Z,96.80
2022-11-13T06:02:58.404Z,96.80
2022-11-13T06:05:44.439Z,97.10
2022-11-13T06:08:31.235Z,97.00
2022-11-13T06:11:20.932Z,97.60
2022-11-13T06:14:07.356Z,98.00
2022-11-13T06:16:53.315Z,97.80
2022-11-13T06:19:39.440Z,98.10
2022-11-13T06:22:25.551Z,98.40
2022-11-13T06:25:14.320Z,98.40
2022-11-13T06:28:01.146Z,98.50
2022-11-13T06:30:48.033Z,98.30
2022-11-13T06:33:34.842Z,97.90
2022-11-13T06:36:24.463Z,98.20
2022-11-13T06:39:10.953Z,98.20
2022-11-13T06:41:57.098Z,98.50
2022-11-13T06:44:45.803Z,98.50
2022-11-13T06:47:32.703Z,98.70
2022-11-13T06:50:19.297Z,98.50
2022-11-13T06:53:05.396Z,98.60
2022-11-13T06:56:11.705Z,98.90
2022-11-13T06:58:58.309Z,98.90
2022-11-13T07:01:46.180Z,98.50
2022-11-13T07:04:32.748Z,98.50
2022-11-13T07:07:18.834Z,98.40
2022-11-13T07:10:05.124Z,98.70
2022-11-13T07:12:54.703Z,98.90
2022-11-13T07:15:41.790Z,98.40
2022-11-13T07:18:31.376Z,98.00
2022-11-13T07:21:20.659Z,98.10
2022-11-13T07:24:09.481Z,98.10
2022-11-13T07:26:55.905Z,97.60
2022-11-13T07:29:43.726Z,97.60
2022-11-13T07:32:29.885Z,97.90
2022-11-13T07:35:17.044Z,97.70
2022-11-13T07:38:02.848Z,97.90
2022-11-13T07:40:49.784Z,98.30
2022-11-13T07:43:36.471Z,98.00
2022-11-13T07:46:22.957Z,98.00
2022-11-13T07:49:09.197Z,98.40
2022-11-13T07:51:55.248Z,98.70
2022-11-13T07:54:41.841Z,99.10
2022-11-13T07:57:27.587Z,99.30
2022-11-13T08:00:15.149Z,99.60
2022-11-13T08:03:09.668Z,99.30
2022-11-13T08:06:06.327Z,99.70
2022-11-13T08:08:53.165Z,98.80
2022-11-13T08:11:44.562Z,99.10
2022-11-13T08:14:39.589Z,98.40
2022-11-13T08:17:26.554Z,98.70
2022-11-13T08:20:12.994Z,98.60
2022-11-13T08:23:00.801Z,98.20
2022-11-13T08:25:47.073Z,98.40
2022-11-13T08:28:32.872Z,98.80
2022-11-13T08:31:19.787Z,98.70
2022-11-13T08:34:05.595Z,99.40
2022-11-13T08:36:51.464Z,99.50
2022-11-13T08:39:37.506Z,99.60
2022-11-13T08:42:23.924Z,99.90
2022-11-13T08:45:12.191Z,99.60
2022-11-13T08:48:02.043Z,99.40
2022-11-13T08:50:56.380Z,99.90
2022-11-13T08:53:42.378Z,99.60
2022-11-13T08:59:36.541Z,99.30
2022-11-13T09:02:22.353Z,99.20
2022-11-13T09:05:08.934Z,99.50
2022-11-13T09:08:00.482Z,99.10
2022-11-13T09:10:47.052Z,98.00
2022-11-13T09:13:42.785Z,98.00
2022-11-13T09:16:25.243Z,97.90
2022-11-13T09:19:11.207Z,97.90
2022-11-13T09:21:57.411Z,97.10
2022-11-13T09:24:43.501Z,96.20
2022-11-13T09:27:30.682Z,96.20
2022-11-13T09:30:17.487Z,95.30
2022-11-13T09:33:03.539Z,95.60
2022-11-13T09:35:49.716Z,95.70
2022-11-13T09:38:38.540Z,95.60
2022-11-13T09:41:28.907Z,95.60
2022-11-13T09:44:19.265Z,95.20
2022-11-13T09:47:24.765Z,95.10
2022-11-13T09:50:17.990Z,95.10
2022-11-13T09:53:05.177Z,94.70
2022-11-13T09:55:55.143Z,94.40
2022-11-13T09:58:47.959Z,94.80
2022-11-13T10:01:56.351Z,94.80
2022-11-13T10:05:15.589Z,95.50
2022-11-13T10:08:36.941Z,94.80
2022-11-13T10:11:45.118Z,95.00
2022-11-13T10:14:42.016Z,94.70
2022-11-13T10:17:45.298Z,94.80
2022-11-13T10:20:36.288Z,94.50
2022-11-13T10:23:31.846Z,94.00
2022-11-13T10:26:20.787Z,94.20
2022-11-13T10:29:18.464Z,94.30
2022-11-13T10:32:24.870Z,94.00
2022-11-13T10:35:20.595Z,93.90
2022-11-13T10:38:13.288Z,93.40
2022-11-13T10:41:14.501Z,93.40
2022-11-13T10:44:10.472Z,93.30
2022-11-13T10:47:36.487Z,93.50
2022-11-13T10:50:15.313Z,93.00
2022-11-13T10:53:01.402Z,93.40
2022-11-13T10:55:51.173Z,93.60
2022-11-13T10:58:40.877Z,93.00
2022-11-13T11:01:26.855Z,93.10
2022-11-13T11:04:25.309Z,93.20
2022-11-13T11:07:21.926Z,93.90
2022-11-13T11:10:24.288Z,93.90
2022-11-13T11:13:15.078Z,93.30
2022-11-13T11:16:04.567Z,92.00
2022-11-13T11:18:57.722Z,92.00
2022-11-13T11:21:45.011Z,92.00
2022-11-13T11:24:35.157Z,92.10
2022-11-13T11:27:37.940Z,92.50
2022-11-13T11:30:28.168Z,93.20
2022-11-13T11:33:39.464Z,93.10
2022-11-13T11:36:38.792Z,93.00
2022-11-13T11:39:31.688Z,92.30
2022-11-13T11:42:34.296Z,92.10
2022-11-13T11:45:30.500Z,92.40
2022-11-13T11:48:19.523Z,92.50
2022-11-13T11:51:27.518Z,92.30
2022-11-13T11:54:26.720Z,92.40
2022-11-13T11:57:28.394Z,92.80
2022-11-13T12:00:18.103Z,92.10
2022-11-13T12:03:30.634Z,91.60
2022-11-13T12:06:23.616Z,90.80
2022-11-13T12:09:20.055Z,90.10
2022-11-13T12:12:40.039Z,89.30
2022-11-13T12:15:33.235Z,90.60
2022-11-13T12:18:37.110Z,89.30
2022-11-13T12:21:27.201Z,90.00
2022-11-13T12:24:32.093Z,91.00
2022-11-13T12:27:48.640Z,90.40
2022-11-13T12:30:45.244Z,89.40
2022-11-13T12:33:41.213Z,88.70
2022-11-13T12:36:28.482Z,86.80
2022-11-13T12:39:18.470Z,86.20
2022-11-13T12:42:14.405Z,85.20
2022-11-13T12:45:28.158Z,85.60
2022-11-13T12:48:18.859Z,85.40
2022-11-13T12:51:08.341Z,85.30
2022-11-13T12:53:56.358Z,85.70
2022-11-13T12:56:42.609Z,86.00
2022-11-13T12:59:39.102Z,87.20
2022-11-13T13:02:37.216Z,88.10
2022-11-13T13:05:30.857Z,89.20
2022-11-13T13:08:20.843Z,89.80
2022-11-13T13:11:28.420Z,90.30
2022-11-13T13:14:33.380Z,90.50
2022-11-13T13:17:22.302Z,93.40
2022-11-13T13:20:20.925Z,91.60
2022-11-13T13:23:11.101Z,90.60
2022-11-13T13:26:15.526Z,90.40
2022-11-13T13:29:05.543Z,90.90
2022-11-13T13:32:21.144Z,91.00
2022-11-13T13:35:16.645Z,90.70
2022-11-13T13:38:12.366Z,90.00
2022-11-13T13:41:18.942Z,90.30
2022-11-13T13:44:24.389Z,90.00
2022-11-13T13:47:14.291Z,88.30
2022-11-13T13:50:01.082Z,89.30
2022-11-13T13:52:54.250Z,87.90
2022-11-13T13:55:39.326Z,87.60
2022-11-13T13:58:36.561Z,86.50
2022-11-13T14:01:29.211Z,86.10
2022-11-13T14:04:24.874Z,86.80
2022-11-13T14:07:21.886Z,87.50
2022-11-13T14:10:15.297Z,88.50
2022-11-13T14:13:01.368Z,89.00
2022-11-13T14:15:48.245Z,90.20
2022-11-13T14:18:35.327Z,90.30
2022-11-13T14:21:23.396Z,90.00
2022-11-13T14:24:37.548Z,89.70
2022-11-13T14:27:29.600Z,89.30
2022-11-13T14:30:28.800Z,89.90
2022-11-13T14:33:19.330Z,90.30
2022-11-13T14:36:08.665Z,90.80
2022-11-13T14:38:55.288Z,91.10
2022-11-13T14:41:49.779Z,91.60
2022-11-13T14:44:36.082Z,92.20
2022-11-13T14:47:32.003Z,92.50
2022-11-13T14:50:24.399Z,92.80
2022-11-13T14:53:11.399Z,93.20
2022-11-13T14:56:01.564Z,93.90
2022-11-13T14:58:48.963Z,94.50
2022-11-13T15:01:35.444Z,95.20
2022-11-13T15:04:21.632Z,95.60
2022-11-13T15:07:31.521Z,95.90
2022-11-13T15:10:21.146Z,95.90
2022-11-13T15:13:27.663Z,96.80
2022-11-13T15:16:26.274Z,96.90
2022-11-13T15:19:35.774Z,96.90
2022-11-13T15:22:29.509Z,97.10
2022-11-13T15:25:16.788Z,97.90
2022-11-13T15:28:03.780Z,97.80
2022-11-13T15:30:53.035Z,98.10
2022-11-13T15:33:39.597Z,98.40
2022-11-13T15:36:26.103Z,98.50
2022-11-13T15:39:22.912Z,98.80
2022-11-13T15:42:02.395Z,99.30
2022-11-13T15:44:48.619Z,99.50
2022-11-13T15:47:38.004Z,99.90
2022-11-13T15:50:25.014Z,99.90
2022-11-13T15:53:14.645Z,99.90
2022-11-13T15:56:07.734Z,99.90
2022-11-13T15:58:56.477Z,99.90
2022-11-13T16:01:46.111Z,99.90
2022-11-13T16:04:54.543Z,99.90
2022-11-13T16:07:26.863Z,99.90
2022-11-13T16:10:13.162Z,99.90
2022-11-13T16:12:58.997Z,99.90
2022-11-13T16:15:46.315Z,99.90
2022-11-13T16:18:33.180Z,99.90
2022-11-13T16:21:21.121Z,99.90
2022-11-13T16:24:10.454Z,99.90
2022-11-13T16:26:58.479Z,99.90
2022-11-13T16:29:44.617Z,99.90
2022-11-13T16:32:30.959Z,99.90
2022-11-13T16:35:21.777Z,99.90
2022-11-13T16:38:15.227Z,99.90
2022-11-13T16:44:26.340Z,99.90
2022-11-13T16:47:25.745Z,99.90
2022-11-13T16:50:25.770Z,99.90
2022-11-13T16:53:11.653Z,99.90
2022-11-13T16:55:57.589Z,99.90
2022-11-13T16:58:44.328Z,99.90
2022-11-13T17:01:33.357Z,99.90
2022-11-13T17:04:19.669Z,99.90
2022-11-13T17:07:06.458Z,99.90
2022-11-13T17:10:16.594Z,99.90
2022-11-13T17:12:40.546Z,99.90
2022-11-13T17:15:27.324Z,99.90
2022-11-13T17:18:13.381Z,99.90
2022-11-13T17:21:00.278Z,99.90
2022-11-13T17:23:46.810Z,99.90
2022-11-13T17:26:32.876Z,99.90
2022-11-13T17:29:19.048Z,99.90
2022-11-13T17:32:05.981Z,99.90
2022-11-13T17:34:51.978Z,99.90
2022-11-13T17:37:38.099Z,99.90
2022-11-13T17:40:25.905Z,99.90
2022-11-13T17:43:11.876Z,99.90
2022-11-13T17:45:59.303Z,99.90
2022-11-13T17:48:48.508Z,99.90
2022-11-13T17:51:56.985Z,99.90
2022-11-13T17:54:43.690Z,99.90
2022-11-13T17:57:31.653Z,99.90
2022-11-13T18:00:19.026Z,99.90
2022-11-13T18:03:05.835Z,99.90
2022-11-13T18:05:52.038Z,99.90
2022-11-13T18:08:43.156Z,99.90
2022-11-13T18:11:30.557Z,99.90
2022-11-13T18:14:17.291Z,99.90
2022-11-13T18:17:03.619Z,99.90
2022-11-13T18:19:51.177Z,99.90
2022-11-13T18:22:37.107Z,99.90
2022-11-13T18:25:23.808Z,99.90
2022-11-13T18:28:09.441Z,99.90
2022-11-13T18:30:56.777Z,99.90
2022-11-13T18:33:43.576Z,99.90
2022-11-13T18:36:31.082Z,99.90
2022-11-13T18:39:20.446Z,99.90
2022-11-13T18:42:09.475Z,99.90
2022-11-13T18:44:55.939Z,99.90
2022-11-13T18:47:41.945Z,99.90
2022-11-13T18:50:31.182Z,99.90
2022-11-13T18:53:17.465Z,99.90
2022-11-13T18:56:06.562Z,99.90
2022-11-13T18:58:54.476Z,99.90
2022-11-13T19:01:46.558Z,99.90
2022-11-13T19:04:32.891Z,99.90
2022-11-13T19:07:20.110Z,99.90
2022-11-13T19:10:06.979Z,99.90
2022-11-13T19:12:53.059Z,99.90
2022-11-13T19:15:39.488Z,99.90
2022-11-13T19:18:26.751Z,99.90
2022-11-13T19:21:18.933Z,99.90
2022-11-13T19:24:09.008Z,99.90
2022-11-13T19:26:55.695Z,99.90
2022-11-13T19:29:42.694Z,99.90
2022-11-13T19:32:30.159Z,99.90
2022-11-13T19:35:17.036Z,99.90
2022-11-13T19:38:04.499Z,99.90
2022-11-13T19:40:52.512Z,99.90
2022-11-13T19:43:40.883Z,99.90
2022-11-13T19:46:27.835Z,99.90
2022-11-13T19:49:13.932Z,99.90
2022-11-13T19:52:00.569Z,99.90
2022-11-13T19:54:47.377Z,99.90
2022-11-13T19:57:35.178Z,99.90
2022-11-13T20:00:24.693Z,99.90
2022-11-13T20:03:11.020Z,99.90
2022-11-13T20:06:01.430Z,99.90
2022-11-13T20:08:48.271Z,99.90
2022-11-13T20:11:37.859Z,99.90
2022-11-13T20:14:24.468Z,99.90
2022-11-13T20:17:11.788Z,99.90
2022-11-13T20:19:58.758Z,99.90
2022-11-13T20:22:45.396Z,99.90
2022-11-13T20:25:33.079Z,99.90
2022-11-13T20:28:19.579Z,99.90
2022-11-13T20:31:16.516Z,99.90
2022-11-13T20:34:04.597Z,99.90
2022-11-13T20:36:50.574Z,99.90
2022-11-13T20:39:37.589Z,99.90
2022-11-13T20:42:24.860Z,99.90
2022-11-13T20:45:11.355Z,99.90
2022-11-13T20:47:57.524Z,99.90
2022-11-13T20:50:43.814Z,99.90
2022-11-13T20:53:30.204Z,99.90
2022-11-13T20:56:17.313Z,99.90
2022-11-13T20:59:04.552Z,99.90
2022-11-13T21:01:50.832Z,99.90
2022-11-13T21:04:37.289Z,99.90
2022-11-13T21:07:23.400Z,99.90
2022-11-13T21:10:10.467Z,99.90
2022-11-13T21:12:58.227Z,99.90
2022-11-13T21:15:44.951Z,99.90
2022-11-13T21:18:31.400Z,99.90
2022-11-13T21:21:20.844Z,99.90
2022-11-13T21:24:07.861Z,99.90
2022-11-13T21:26:53.826Z,99.90
2022-11-13T21:29:39.868Z,99.90
2022-11-13T21:32:27.104Z,99.90
2022-11-13T21:35:14.634Z,99.90
2022-11-13T21:38:05.199Z,99.90
2022-11-13T21:40:56.510Z,99.90
2022-11-13T21:43:42.432Z,99.90
2022-11-13T21:46:32.067Z,99.90
2022-11-13T21:49:20.222Z,99.90
2022-11-13T21:52:32.664Z,99.90
2022-11-13T21:55:20.151Z,99.90
2022-11-13T21:58:06.566Z,99.90
2022-11-13T22:00:53.289Z,99.90
2022-11-13T22:03:39.543Z,99.90
2022-11-13T22:06:30.938Z,99.90
2022-11-13T22:09:21.549Z,99.90
2022-11-13T22:12:07.364Z,99.90
2022-11-13T22:14:55.907Z,99.90
2022-11-13T22:17:42.759Z,99.90
2022-11-13T22:20:29.900Z,99.90
2022-11-13T22:23:16.845Z,99.90
2022-11-13T22:26:06.305Z,99.90
2022-11-13T22:28:54.694Z,99.90
2022-11-13T22:31:43.816Z,99.90
2022-11-13T22:34:29.869Z,99.90
2022-11-13T22:37:16.761Z,99.90
2022-11-13T22:40:02.835Z,99.90
2022-11-13T22:42:49.708Z,99.90
2022-11-13T22:45:36.498Z,99.90
2022-11-13T22:48:22.591Z,99.90
2022-11-13T22:51:15.552Z,99.90
2022-11-13T22:54:05.439Z,99.90
2022-11-13T22:56:51.989Z,99.90
2022-11-13T22:59:37.882Z,99.90
2022-11-13T23:02:24.325Z,99.90
2022-11-13T23:05:11.533Z,99.90
2022-11-13T23:07:57.784Z,99.90
2022-11-13T23:10:44.379Z,99.90
2022-11-13T23:13:30.442Z,99.90
2022-11-13T23:16:17.781Z,99.90
2022-11-13T23:19:03.965Z,99.90
2022-11-13T23:21:50.438Z,99.90
2022-11-13T23:24:36.712Z,99.90
2022-11-13T23:27:23.325Z,99.90
2022-11-13T23:30:15.986Z,99.90
2022-11-13T23:33:04.943Z,99.90
2022-11-13T23:35:51.738Z,99.90
2022-11-13T23:38:37.886Z,99.90
2022-11-13T23:41:30.842Z,99.90
2022-11-13T23:44:21.045Z,99.90
2022-11-13T23:47:07.862Z,99.90
2022-11-13T23:49:54.214Z,99.90
2022-11-13T23:52:40.107Z,99.90
2022-11-13T23:55:26.949Z,99.90
2022-11-13T23:58:15.535Z,99.90
